Aérodrome :
LOGIN :

S'inscrire | Disclaimer

   EN    FR    IT 

 










Légende :    VFR   VFR Marginal   IFR   IFR Intensif   IFR Très Intensif
Visi : 
Plafond : 
>= 8 km
>= 3000ft
5 à 8 km
1000 à 3000 ft
1500m à 5 km
500 à 1000 ft
800 à 1500m
200 à 500 ft
< 800m
< 200 ft
Symboles :   Orages  Brouillard  Fortes neiges  Fortes précipitations  Vent > 20 kt
SIGMETs :   Divers  Orages  Givrage  Turbulence  Onde Orograph.  Cendres Volcan.







- Altitude de l'aérodrome : 1470 ft
- Code IATA : KLU


LOWK - Klagenfurt

DERNIER METAR :
  • 160220Z AUTO VRB02KT 9999 FEW005 SCT006 15/14 Q1016

METARs EXPIRÉS :
  • 160150Z AUTO 32003KT 9999 FEW004 BKN005 15/14 Q1016
  • 160120Z AUTO VRB01KT 9999 FEW004 BKN210 15/14 Q1016
  • 160050Z AUTO VRB01KT 9999 SCT012 BKN190 15/14 Q1017
  • 160020Z AUTO 31003KT 9999 FEW013 BKN220 16/14 Q1017
  • 152350Z AUTO 33002KT 9999 FEW009 BKN230 15/14 Q1017

TAF TAF LOWK
Valide du 16 à 00h jusqu'au 17 à 00h UTC


152315Z 1600/1624 VRB02KT 9999 FEW050 SCT090 TX24/1613Z TN15/1602Z
PROB30 1602/1606 8000 BKN008
TEMPO 1606/1612 -SHRA SCT040 FEW050TCU BKN090
TEMPO 1612/1619 33015G25KT 5000 TSRA
Pas de NOTAMs connus pour ce terrain.



MET'MAP, la Météo Aéronautique d'un coup d'oeil ! - Copyright ORBIFLY Décembre 2007 - Disclaimer

ORBIFLY MET'MAP TEAM :

Programmation & Développement : Alexandra Zaïnal
Conception & Développement : Baudouin d'Aumeries
Co-Programmation & Développement : Marc-Olivier Méhu
Soutien technique & logistique : Manuel Goepfert

Contact : metmap@orbifly.com




SOURCES & CREDITS :

   NOAA